Time;durP1;ratioP1;P1;durP2;ratioP2;P2;SDS_P1;SDS_P2;PMS_P1;PMS_P2;Temp;Humidity;BMP_temperature;BMP_pressure;BME280_temperature;BME280_humidity;BME280_pressure;Samples;Min_cycle;Max_cycle;Signal;HPM_P1;HPM_P2
2022/05/08 00:00:27;;;;;;;17.10;8.15;;;;;;;13.39;68.08;102874.56;4975946;28;20565;-59
2022/05/08 00:02:54;;;;;;;17.33;8.02;;;;;;;13.44;68.07;102879.97;4964424;28;20041;-58
2022/05/08 00:05:21;;;;;;;16.98;7.97;;;;;;;13.40;67.30;102878.09;4980278;28;20046;-58
2022/05/08 00:07:46;;;;;;;13.63;7.18;;;;;;;13.39;67.05;102885.06;4974747;28;21540;-59
2022/05/08 00:10:11;;;;;;;13.68;6.90;;;;;;;13.37;66.66;102878.88;4977522;28;20033;-58
2022/05/08 00:12:36;;;;;;;12.48;6.93;;;;;;;13.26;66.69;102882.84;4976088;28;20069;-58
2022/05/08 00:15:03;;;;;;;16.80;7.40;;;;;;;13.10;67.14;102891.00;4967600;28;20473;-59
2022/05/08 00:17:34;;;;;;;17.70;8.00;;;;;;;13.06;67.53;102872.47;4983310;28;20080;-59
2022/05/08 00:20:00;;;;;;;16.88;7.40;;;;;;;13.07;67.29;102876.88;4977883;28;20100;-59
2022/05/08 00:22:25;;;;;;;15.85;7.50;;;;;;;13.00;67.60;102875.78;4964445;28;20057;-58
2022/05/08 00:24:50;;;;;;;15.35;7.35;;;;;;;12.93;67.80;102879.00;4979502;28;20050;-59
2022/05/08 00:27:16;;;;;;;16.67;7.60;;;;;;;12.87;68.21;102878.78;4967284;28;20189;-58
2022/05/08 00:29:41;;;;;;;22.77;8.27;;;;;;;12.73;68.58;102877.44;4966247;28;20042;-60
2022/05/08 00:32:07;;;;;;;17.05;7.72;;;;;;;12.69;68.53;102876.41;4973798;28;20484;-60
2022/05/08 00:34:33;;;;;;;20.05;7.97;;;;;;;12.54;69.17;102878.47;4974008;28;20474;-59
2022/05/08 00:36:58;;;;;;;18.05;7.80;;;;;;;12.48;69.61;102873.00;4970391;28;20046;-58
2022/05/08 00:39:23;;;;;;;14.82;7.82;;;;;;;12.41;69.45;102874.50;4968207;28;20563;-57
2022/05/08 00:41:49;;;;;;;20.38;8.23;;;;;;;12.27;69.40;102880.03;4977551;28;20053;-60
2022/05/08 00:44:14;;;;;;;23.58;8.55;;;;;;;12.19;69.10;102885.88;4978273;28;20043;-59
2022/05/08 00:46:41;;;;;;;20.52;8.13;;;;;;;12.21;68.99;102883.31;4971187;28;20260;-60
2022/05/08 00:49:06;;;;;;;19.42;8.05;;;;;;;12.18;68.57;102880.59;4970418;28;20302;-59
2022/05/08 00:51:32;;;;;;;17.92;8.07;;;;;;;12.23;68.24;102892.13;4982575;28;20038;-57
2022/05/08 00:54:01;;;;;;;16.77;8.13;;;;;;;12.11;68.90;102891.63;4978293;28;20093;-59
2022/05/08 00:56:27;;;;;;;21.25;7.80;;;;;;;12.10;68.29;102884.63;4973208;28;20440;-58
2022/05/08 00:58:54;;;;;;;17.13;7.35;;;;;;;12.04;67.94;102892.22;4990040;28;20148;-61
2022/05/08 01:01:20;;;;;;;26.45;7.97;;;;;;;11.85;68.16;102889.69;4962346;28;20709;-60
2022/05/08 01:03:46;;;;;;;18.85;7.65;;;;;;;11.87;68.13;102883.72;4976573;28;20054;-60
2022/05/08 01:06:13;;;;;;;23.80;7.93;;;;;;;11.77;68.29;102887.66;4977299;28;20588;-60
2022/05/08 01:08:41;;;;;;;18.67;7.85;;;;;;;11.74;68.60;102886.66;4988471;28;20049;-58
2022/05/08 01:11:08;;;;;;;20.20;7.65;;;;;;;11.71;68.31;102874.31;4962016;28;20104;-59
2022/05/08 01:13:33;;;;;;;20.30;7.55;;;;;;;11.54;69.16;102883.19;4980374;28;20520;-59
2022/05/08 01:15:59;;;;;;;21.13;7.28;;;;;;;11.55;69.68;102878.88;4963955;28;20424;-59
2022/05/08 01:18:25;;;;;;;18.63;8.00;;;;;;;11.48;69.79;102879.44;4974690;28;20097;-60
2022/05/08 01:20:51;;;;;;;19.65;7.32;;;;;;;11.46;69.97;102875.88;4970560;28;20078;-58
2022/05/08 01:23:19;;;;;;;20.63;7.45;;;;;;;11.43;69.91;102875.75;4968835;28;20070;-60
2022/05/08 01:25:49;;;;;;;21.50;7.47;;;;;;;11.30;70.06;102882.16;4985647;28;20235;-59
2022/05/08 01:28:14;;;;;;;23.73;7.60;;;;;;;11.29;70.48;102875.16;4966769;28;20077;-59
2022/05/08 01:30:44;;;;;;;25.63;7.68;;;;;;;11.25;70.56;102871.53;4972849;28;20489;-58
2022/05/08 01:33:10;;;;;;;17.10;7.40;;;;;;;11.08;70.68;102876.88;4973346;28;20120;-59
2022/05/08 01:35:36;;;;;;;20.98;6.57;;;;;;;11.15;70.71;102878.94;4979778;28;20600;-59
2022/05/08 01:38:03;;;;;;;23.88;6.57;;;;;;;11.05;71.36;102877.63;4961639;28;20069;-59
2022/05/08 01:40:30;;;;;;;22.73;7.10;;;;;;;11.05;71.06;102881.94;4971270;28;20132;-59
2022/05/08 01:42:57;;;;;;;18.27;7.00;;;;;;;11.09;71.23;102873.44;4974304;28;20046;-57
2022/05/08 01:45:23;;;;;;;17.05;6.18;;;;;;;11.01;71.74;102880.03;4969360;28;20053;-57
2022/05/08 01:50:36;;;;;;;18.40;5.88;;;;;;;11.04;71.82;102877.59;4970669;28;20112;-58
2022/05/08 01:53:02;;;;;;;20.90;6.13;;;;;;;10.97;71.90;102879.94;4965982;28;20085;-61
2022/05/08 01:55:27;;;;;;;17.63;5.63;;;;;;;10.91;72.27;102883.97;4976720;28;20136;-61
2022/05/08 01:57:53;;;;;;;21.08;6.20;;;;;;;10.87;72.31;102882.94;4962437;28;20058;-58
2022/05/08 02:00:20;;;;;;;19.08;5.85;;;;;;;10.89;72.56;102893.44;4977925;28;20409;-60
2022/05/08 02:02:48;;;;;;;27.48;6.25;;;;;;;10.89;72.15;102893.44;4981414;28;20077;-59
2022/05/08 02:05:18;;;;;;;24.88;6.50;;;;;;;10.82;72.61;102886.16;4968990;28;20050;-60
2022/05/08 02:07:45;;;;;;;17.85;5.72;;;;;;;10.85;72.36;102886.31;4971592;28;20575;-59
2022/05/08 02:10:12;;;;;;;19.05;6.10;;;;;;;10.77;72.83;102892.91;4977958;28;20425;-60
2022/05/08 02:12:38;;;;;;;19.15;5.90;;;;;;;10.81;72.91;102893.09;4976666;28;20058;-60
2022/05/08 02:15:04;;;;;;;21.77;5.55;;;;;;;10.79;72.52;102896.50;4962195;28;20464;-59
2022/05/08 02:17:30;;;;;;;20.45;6.20;;;;;;;10.71;72.51;102896.13;4969757;28;20573;-59
2022/05/08 02:19:56;;;;;;;19.67;5.78;;;;;;;10.66;72.77;102901.97;4970406;28;20074;-59
2022/05/08 02:22:21;;;;;;;26.38;6.50;;;;;;;10.65;72.93;102900.19;4972146;28;20329;-59
2022/05/08 02:24:46;;;;;;;22.38;6.22;;;;;;;10.57;73.31;102905.03;4976067;28;20703;-59
2022/05/08 02:27:15;;;;;;;23.58;6.03;;;;;;;10.56;73.13;102905.84;4967512;28;20579;-59
2022/05/08 02:29:41;;;;;;;24.30;6.22;;;;;;;10.52;73.01;102906.56;4973653;28;20571;-59
2022/05/08 02:32:06;;;;;;;25.73;6.10;;;;;;;10.45;73.61;102902.78;4980139;28;20042;-59
2022/05/08 02:34:32;;;;;;;18.55;5.45;;;;;;;10.45;73.92;102897.56;4977956;28;20033;-60
2022/05/08 02:36:57;;;;;;;26.13;5.55;;;;;;;10.39;74.16;102899.88;4970252;28;20035;-58
2022/05/08 02:39:23;;;;;;;18.42;5.40;;;;;;;10.33;74.15;102904.81;4976376;28;20046;-59
2022/05/08 02:41:48;;;;;;;22.17;6.07;;;;;;;10.36;74.63;102906.69;4980436;28;20141;-58
2022/05/08 02:44:13;;;;;;;23.42;5.82;;;;;;;10.34;74.25;102904.00;4991440;28;20401;-59
2022/05/08 02:46:38;;;;;;;24.65;5.93;;;;;;;10.32;74.12;102909.94;4972211;28;20128;-59
2022/05/08 02:49:04;;;;;;;20.77;5.85;;;;;;;10.32;74.26;102903.03;4968538;28;21511;-58
2022/05/08 02:51:29;;;;;;;19.85;5.70;;;;;;;10.37;73.93;102905.88;4973483;28;20045;-59
2022/05/08 02:53:54;;;;;;;20.25;5.50;;;;;;;10.28;74.52;102908.03;4984469;28;20053;-58
2022/05/08 02:59:04;;;;;;;16.10;5.32;;;;;;;10.16;74.87;102914.44;4969739;28;20317;-57
2022/05/08 03:01:29;;;;;;;22.77;5.47;;;;;;;10.13;74.72;102909.03;4977312;28;20559;-57
2022/05/08 03:03:55;;;;;;;20.50;5.57;;;;;;;10.21;74.43;102913.75;4973684;28;20076;-58
2022/05/08 03:06:20;;;;;;;20.73;5.30;;;;;;;10.20;74.18;102915.47;4973373;28;20171;-58
2022/05/08 03:08:48;;;;;;;21.95;5.50;;;;;;;10.16;74.21;102917.06;4964748;28;20042;-59
2022/05/08 03:11:25;;;;;;;20.80;5.47;;;;;;;10.04;74.52;102913.84;4968950;28;20560;-60
2022/05/08 03:13:51;;;;;;;21.45;5.82;;;;;;;10.00;74.83;102914.47;4967287;28;20540;-57
2022/05/08 03:16:17;;;;;;;20.15;5.07;;;;;;;9.94;74.77;102913.31;4975639;28;20105;-58
2022/05/08 03:18:45;;;;;;;21.40;5.10;;;;;;;9.90;75.08;102921.78;4969969;28;20056;-58
2022/05/08 03:21:12;;;;;;;21.02;5.50;;;;;;;9.93;74.49;102920.25;4957921;28;20037;-60
2022/05/08 03:23:38;;;;;;;15.63;5.13;;;;;;;9.90;74.96;102930.50;4973853;28;20108;-60
2022/05/08 03:26:06;;;;;;;17.00;5.28;;;;;;;9.88;74.69;102926.06;4981069;28;20155;-59
2022/05/08 03:28:33;;;;;;;18.17;5.10;;;;;;;9.82;75.60;102928.38;4974415;28;20061;-58
2022/05/08 03:30:59;;;;;;;18.13;5.13;;;;;;;9.81;75.64;102921.38;4958012;28;20048;-58
2022/05/08 03:33:25;;;;;;;20.75;5.43;;;;;;;9.79;75.83;102929.09;4976217;28;20342;-57
2022/05/08 03:35:50;;;;;;;23.33;5.35;;;;;;;9.72;75.48;102925.28;4975090;28;20037;-57
2022/05/08 03:38:18;;;;;;;19.70;5.05;;;;;;;9.70;75.80;102924.31;4976121;28;20061;-60
2022/05/08 03:40:43;;;;;;;20.80;5.95;;;;;;;9.74;75.87;102939.28;4976985;28;21161;-58
2022/05/08 03:43:09;;;;;;;18.25;5.82;;;;;;;9.70;75.68;102926.03;4968951;28;20529;-60
2022/05/08 03:45:34;;;;;;;19.77;5.07;;;;;;;9.70;75.43;102937.34;4979695;28;20045;-60
2022/05/08 03:48:00;;;;;;;21.70;5.60;;;;;;;9.67;75.39;102931.09;4965333;28;20081;-58
2022/05/08 03:50:25;;;;;;;22.95;5.55;;;;;;;9.68;75.63;102940.69;4974174;28;20050;-59
2022/05/08 03:52:50;;;;;;;18.73;5.25;;;;;;;9.71;75.89;102931.31;4974787;28;20045;-58
2022/05/08 03:55:16;;;;;;;19.08;5.25;;;;;;;9.80;75.96;102940.41;4967215;28;20038;-59
2022/05/08 03:57:42;;;;;;;17.45;4.90;;;;;;;9.83;75.13;102940.53;4966768;28;20129;-57
2022/05/08 04:00:09;;;;;;;19.73;5.18;;;;;;;9.93;75.14;102940.19;4995857;28;20362;-60
2022/05/08 04:02:34;;;;;;;21.40;4.97;;;;;;;10.04;74.48;102945.09;4966586;28;20580;-58
2022/05/08 04:05:00;;;;;;;17.77;4.57;;;;;;;10.08;74.22;102934.00;4971585;28;20096;-59
2022/05/08 04:07:26;;;;;;;17.85;4.72;;;;;;;10.20;73.92;102941.53;4982625;28;20041;-57
2022/05/08 04:09:51;;;;;;;18.95;4.43;;;;;;;10.23;73.42;102933.88;4971628;28;20523;-58
2022/05/08 04:12:17;;;;;;;23.88;4.57;;;;;;;10.26;72.97;102947.03;4975084;28;20493;-59
2022/05/08 04:14:42;;;;;;;22.63;4.80;;;;;;;10.36;72.78;102951.91;4962428;28;20658;-59
2022/05/08 04:17:07;;;;;;;19.60;4.47;;;;;;;10.43;72.14;102953.09;4984007;28;20125;-59
2022/05/08 04:19:33;;;;;;;16.02;4.50;;;;;;;10.50;72.45;102949.91;4958383;28;20453;-59
2022/05/08 04:24:43;;;;;;;24.50;4.88;;;;;;;10.52;72.36;102943.97;4981989;28;20448;-59
2022/05/08 04:27:08;;;;;;;17.67;4.22;;;;;;;10.53;71.70;102950.97;4967237;28;20152;-58
2022/05/08 04:29:34;;;;;;;22.05;4.35;;;;;;;11.11;69.12;102950.97;4971439;28;20038;-59
2022/05/08 04:31:59;;;;;;;21.13;4.57;;;;;;;11.31;68.93;102954.47;4964021;28;20444;-59
2022/05/08 04:34:24;;;;;;;16.52;4.05;;;;;;;11.36;68.63;102953.84;4975800;28;20038;-57
2022/05/08 04:36:53;;;;;;;20.77;4.72;;;;;;;11.47;67.60;102954.28;4961994;28;20050;-58
2022/05/08 04:39:18;;;;;;;16.30;3.97;;;;;;;11.51;67.65;102960.56;4963103;28;20404;-59
2022/05/08 04:41:43;;;;;;;14.65;4.00;;;;;;;11.56;66.87;102944.25;4974738;28;20053;-59
2022/05/08 04:44:09;;;;;;;18.05;4.20;;;;;;;11.53;66.99;102962.38;4970973;28;20081;-57
2022/05/08 04:46:34;;;;;;;18.38;4.22;;;;;;;11.66;66.31;102962.09;4976096;28;20033;-59
2022/05/08 04:49:00;;;;;;;15.90;4.30;;;;;;;11.62;66.26;102965.41;4970128;28;20640;-60
2022/05/08 04:51:25;;;;;;;17.45;4.20;;;;;;;11.62;66.73;102961.91;4967853;28;20057;-57
2022/05/08 04:53:50;;;;;;;20.52;4.40;;;;;;;11.74;65.47;102965.06;4979694;28;20340;-57
2022/05/08 04:56:16;;;;;;;20.45;3.92;;;;;;;11.79;65.11;102969.66;4975733;28;20034;-58
2022/05/08 04:58:41;;;;;;;17.02;3.78;;;;;;;11.90;65.40;102975.31;4974891;28;20620;-60
2022/05/08 05:01:06;;;;;;;22.80;3.97;;;;;;;11.90;63.89;102966.56;4970641;28;20053;-58
2022/05/08 05:03:32;;;;;;;25.60;4.20;;;;;;;11.42;65.26;102978.44;4978623;28;20038;-59
2022/05/08 05:05:57;;;;;;;14.38;4.00;;;;;;;12.03;63.47;102977.59;4973532;28;20052;-60
2022/05/08 05:08:23;;;;;;;18.45;4.05;;;;;;;12.06;62.83;102984.69;4965008;28;20057;-58
2022/05/08 05:10:48;;;;;;;20.35;4.15;;;;;;;12.14;62.78;102988.47;4978769;28;20050;-57
2022/05/08 05:13:14;;;;;;;19.75;4.20;;;;;;;12.32;62.55;102988.38;4969114;28;20585;-59
2022/05/08 05:15:40;;;;;;;18.45;4.03;;;;;;;12.37;61.34;102984.19;4966811;28;20046;-58
2022/05/08 05:18:05;;;;;;;21.63;4.18;;;;;;;12.42;61.55;102978.31;4976474;28;20148;-59
2022/05/08 05:20:30;;;;;;;18.40;3.83;;;;;;;12.51;61.07;102978.66;4965162;28;20450;-59
2022/05/08 05:23:00;;;;;;;22.35;4.05;;;;;;;12.76;60.43;102987.44;4976641;28;20421;-58
2022/05/08 05:25:26;;;;;;;21.98;4.35;;;;;;;12.74;60.06;102992.66;4966892;28;20046;-58
2022/05/08 05:27:52;;;;;;;21.77;3.50;;;;;;;12.74;59.22;102989.13;4961289;28;20042;-58
2022/05/08 05:30:18;;;;;;;21.30;3.97;;;;;;;12.78;59.88;102993.63;4975987;28;20054;-58
2022/05/08 05:32:43;;;;;;;16.58;4.10;;;;;;;12.90;59.68;102992.38;4968534;28;20395;-59
2022/05/08 05:35:09;;;;;;;16.50;3.80;;;;;;;12.93;59.18;102995.09;4967364;28;20469;-58
2022/05/08 05:37:34;;;;;;;21.42;3.90;;;;;;;13.10;59.00;102994.84;4964987;28;20046;-58
2022/05/08 05:40:00;;;;;;;16.17;3.90;;;;;;;13.37;57.85;102995.88;4971276;28;20121;-58
2022/05/08 05:42:25;;;;;;;17.33;4.43;;;;;;;13.38;57.36;102995.03;4977321;28;20591;-59
2022/05/08 05:44:51;;;;;;;15.80;3.83;;;;;;;13.55;57.19;102998.25;4966302;28;20050;-59
2022/05/08 05:50:00;;;;;;;18.80;4.40;;;;;;;13.51;56.58;102997.25;4977983;28;20105;-58
2022/05/08 05:52:26;;;;;;;21.42;4.60;;;;;;;13.62;56.70;103000.25;4972796;28;20046;-57
2022/05/08 05:54:51;;;;;;;19.58;4.03;;;;;;;13.57;56.52;102997.47;4972099;28;20054;-59
2022/05/08 05:57:16;;;;;;;19.40;4.38;;;;;;;13.54;56.28;102994.72;4973234;28;20976;-57
2022/05/08 05:59:42;;;;;;;18.52;4.38;;;;;;;13.72;55.60;102997.97;4967725;28;20057;-60
2022/05/08 06:02:08;;;;;;;18.92;4.50;;;;;;;13.95;55.50;103003.13;4975549;28;20506;-59
2022/05/08 06:04:33;;;;;;;21.38;4.50;;;;;;;14.25;55.11;103006.75;4975454;28;20062;-59
2022/05/08 06:06:59;;;;;;;20.65;4.65;;;;;;;14.67;53.69;103019.47;4967608;28;20137;-58
2022/05/08 06:09:24;;;;;;;16.55;4.00;;;;;;;15.09;52.52;103010.22;4966136;28;20073;-58
2022/05/08 06:11:50;;;;;;;20.17;4.45;;;;;;;14.97;52.85;103007.25;4963012;28;20109;-58
2022/05/08 06:14:15;;;;;;;18.33;4.28;;;;;;;14.88;52.55;103015.75;4969234;28;20030;-60
2022/05/08 06:16:42;;;;;;;16.25;4.55;;;;;;;15.36;51.80;103013.66;4976253;28;20057;-59
2022/05/08 06:19:08;;;;;;;17.23;4.18;;;;;;;15.19;51.71;103020.16;4964447;28;20504;-57
2022/05/08 06:21:34;;;;;;;17.10;3.92;;;;;;;15.18;51.58;103022.75;4974157;28;20038;-57
2022/05/08 06:23:59;;;;;;;15.38;3.95;;;;;;;15.41;50.29;103026.91;4972372;28;20178;-58
2022/05/08 06:26:25;;;;;;;14.75;3.90;;;;;;;16.65;48.60;103015.22;4981004;28;20449;-59
2022/05/08 06:28:50;;;;;;;17.08;3.83;;;;;;;16.81;47.29;103007.66;4981694;28;20049;-58
2022/05/08 06:31:17;;;;;;;16.33;3.70;;;;;;;17.90;45.11;103014.22;4968784;28;20035;-59
2022/05/08 06:33:43;;;;;;;18.65;3.72;;;;;;;18.37;42.60;103020.25;4978637;28;20486;-58
2022/05/08 06:36:10;;;;;;;15.32;3.65;;;;;;;19.55;40.92;103015.69;4977583;28;20381;-58
2022/05/08 06:38:35;;;;;;;17.92;3.90;;;;;;;19.63;40.95;103010.47;4972595;28;20191;-57
2022/05/08 06:41:01;;;;;;;16.20;3.67;;;;;;;20.07;38.75;103017.03;4967775;28;20494;-59
2022/05/08 06:43:26;;;;;;;15.02;3.55;;;;;;;19.31;39.41;103028.59;4977098;28;20117;-59
2022/05/08 06:45:52;;;;;;;18.58;3.70;;;;;;;19.00;40.32;103025.59;4975207;28;20448;-59
2022/05/08 06:48:17;;;;;;;13.20;3.20;;;;;;;18.48;41.47;103037.13;4973525;28;20053;-58
2022/05/08 06:50:43;;;;;;;17.83;3.88;;;;;;;18.39;41.96;103028.22;4976367;28;20063;-58
2022/05/08 06:53:08;;;;;;;12.40;3.17;;;;;;;19.10;40.22;103034.50;4967542;28;20604;-59
2022/05/08 06:55:34;;;;;;;17.02;3.60;;;;;;;19.15;39.49;103035.44;4968195;28;20058;-59
2022/05/08 06:58:00;;;;;;;17.63;3.65;;;;;;;19.12;39.68;103039.84;4976170;28;20038;-59
2022/05/08 07:03:09;;;;;;;;;;;;;;;19.51;40.08;103036.81;4967841;28;20613;-59
2022/05/08 07:05:40;;;;;;;14.98;3.60;;;;;;;20.21;37.52;103031.28;4983193;28;20068;-59
2022/05/08 07:08:06;;;;;;;15.50;3.42;;;;;;;19.58;39.38;103034.22;4977910;28;20034;-59
2022/05/08 07:10:32;;;;;;;14.52;3.30;;;;;;;19.10;39.31;103034.50;4977474;28;20320;-57
2022/05/08 07:12:57;;;;;;;14.77;3.47;;;;;;;19.75;39.27;103029.13;4968013;28;20262;-59
2022/05/08 07:15:23;;;;;;;10.65;3.47;;;;;;;19.60;38.23;103037.78;4974430;28;20129;-58
2022/05/08 07:17:48;;;;;;;12.45;3.20;;;;;;;19.05;39.77;103039.75;4976423;28;20034;-59
2022/05/08 07:20:13;;;;;;;14.00;3.22;;;;;;;18.77;41.85;103042.91;4968598;28;20054;-58
2022/05/08 07:22:39;;;;;;;15.45;3.30;;;;;;;19.00;40.61;103040.56;4987899;28;20053;-58
2022/05/08 07:25:06;;;;;;;14.90;3.55;;;;;;;18.43;42.53;103035.31;4974683;28;20600;-57
2022/05/08 07:27:36;;;;;;;15.38;3.63;;;;;;;17.57;43.01;103039.94;4984816;28;20050;-56
2022/05/08 07:30:02;;;;;;;16.25;4.00;;;;;;;17.59;45.43;103048.78;4984733;28;20077;-57
2022/05/08 07:32:27;;;;;;;15.52;3.90;;;;;;;17.98;41.51;103044.28;4977432;28;20536;-59
2022/05/08 07:37:37;;;;;;;19.23;3.70;;;;;;;19.08;41.42;103046.84;4971087;28;20083;-59
2022/05/08 07:40:02;;;;;;;13.55;3.10;;;;;;;19.64;38.89;103049.31;4972780;28;20429;-57
2022/05/08 07:42:28;;;;;;;12.65;3.33;;;;;;;20.12;37.78;103041.81;4968894;28;20136;-59
2022/05/08 07:44:53;;;;;;;15.70;3.33;;;;;;;19.96;37.13;103045.19;4978273;28;20460;-58
2022/05/08 07:47:21;;;;;;;15.93;3.45;;;;;;;20.12;37.02;103047.13;4968585;28;20905;-58
2022/05/08 07:49:46;;;;;;;11.98;3.42;;;;;;;20.31;36.68;103042.81;4986367;28;20075;-58
2022/05/08 07:52:11;;;;;;;19.92;3.80;;;;;;;20.91;38.27;103052.97;4985094;28;20038;-58
2022/05/08 07:54:37;;;;;;;16.42;3.50;;;;;;;21.04;35.33;103046.84;4972773;28;20042;-58
2022/05/08 07:57:03;;;;;;;17.67;3.70;;;;;;;20.42;35.33;103041.19;4975379;28;20170;-59
2022/05/08 07:59:31;;;;;;;12.90;3.50;;;;;;;20.32;37.61;103060.53;4965119;28;20196;-58
2022/05/08 08:01:57;;;;;;;12.02;3.40;;;;;;;19.96;37.93;103055.78;4975705;28;20046;-58
2022/05/08 08:04:22;;;;;;;12.38;3.13;;;;;;;20.21;36.86;103056.88;4978725;28;20092;-59
2022/05/08 08:07:04;;;;;;;13.20;3.38;;;;;;;19.91;36.73;103060.16;4976516;28;20045;-58
2022/05/08 08:09:30;;;;;;;13.45;3.50;;;;;;;20.42;36.64;103054.44;4977956;28;20739;-59
2022/05/08 08:11:55;;;;;;;12.45;3.40;;;;;;;19.76;37.71;103054.72;4979885;28;20129;-59
2022/05/08 08:14:21;;;;;;;12.77;3.50;;;;;;;19.20;37.63;103061.97;4974201;28;20034;-59
2022/05/08 08:16:46;;;;;;;14.27;3.80;;;;;;;19.72;38.16;103056.44;4981756;28;20041;-58
2022/05/08 08:19:12;;;;;;;9.25;2.90;;;;;;;19.55;38.56;103058.00;4955421;28;20555;-59
2022/05/08 08:21:37;;;;;;;11.95;3.50;;;;;;;19.85;39.26;103053.03;4971173;28;20050;-59
2022/05/08 08:24:03;;;;;;;11.75;3.58;;;;;;;19.74;37.77;103060.00;4974836;28;20630;-61
2022/05/08 08:26:28;;;;;;;10.48;3.25;;;;;;;18.89;39.69;103061.56;4976497;28;20397;-58
2022/05/08 08:28:54;;;;;;;17.33;3.55;;;;;;;18.36;42.60;103051.94;4977642;28;20061;-58
2022/05/08 08:31:19;;;;;;;12.55;3.75;;;;;;;18.30;41.00;103050.06;4971385;28;20050;-64
2022/05/08 08:33:45;;;;;;;18.95;3.80;;;;;;;18.08;41.34;103055.88;4970745;28;20328;-59
2022/05/08 08:36:11;;;;;;;15.50;3.70;;;;;;;18.28;41.85;103051.81;4973446;28;20283;-59
2022/05/08 08:38:38;;;;;;;13.43;3.63;;;;;;;18.45;42.34;103047.69;4976221;28;20033;-58
2022/05/08 08:41:05;;;;;;;17.23;3.80;;;;;;;17.91;41.87;103052.06;4949906;28;20038;-59
2022/05/08 08:47:42;;;;;;;12.40;3.95;;;;;;;17.94;42.13;103055.63;4972509;28;20061;-60
2022/05/08 08:49:19;;;;;;;11.90;3.50;;;;;;;17.76;41.67;103057.91;4967701;28;20057;-57
2022/05/08 08:51:46;;;;;;;18.50;4.15;;;;;;;17.81;42.34;103049.22;4975346;28;20053;-57
2022/05/08 08:54:11;;;;;;;11.70;3.40;;;;;;;17.98;41.71;103060.09;4969973;28;20045;-57
2022/05/08 08:56:37;;;;;;;10.57;3.22;;;;;;;17.99;41.69;103056.59;4975066;28;20850;-59
2022/05/08 08:59:02;;;;;;;11.13;3.42;;;;;;;18.18;41.27;103053.41;4966485;28;20048;-59
2022/05/08 09:01:32;;;;;;;12.27;3.40;;;;;;;18.09;40.43;103047.97;4972771;28;20256;-59
2022/05/08 09:04:00;;;;;;;7.68;3.03;;;;;;;18.29;42.33;103045.66;4976724;28;20041;-60
2022/05/08 09:06:25;;;;;;;9.88;3.03;;;;;;;18.37;40.54;103046.66;4979041;28;20046;-59
2022/05/08 09:08:50;;;;;;;9.75;3.08;;;;;;;18.36;41.54;103044.88;4977865;28;20565;-58
2022/05/08 09:11:32;;;;;;;10.07;2.65;;;;;;;18.29;40.09;103052.69;4974928;28;20283;-59
2022/05/08 09:13:57;;;;;;;11.38;3.15;;;;;;;18.47;41.83;103045.97;4974558;28;20061;-60
2022/05/08 09:16:22;;;;;;;10.05;2.85;;;;;;;18.49;39.56;103044.22;4960430;28;20505;-60
2022/05/08 09:18:48;;;;;;;9.43;2.85;;;;;;;18.37;38.90;103054.59;4978042;28;20104;-58
2022/05/08 09:24:13;;;;;;;13.60;3.15;;;;;;;17.49;41.21;103055.63;4971936;28;20133;-59
2022/05/08 09:26:39;;;;;;;10.70;2.92;;;;;;;17.64;42.24;103048.03;4968531;28;20093;-59
2022/05/08 09:29:05;;;;;;;11.82;3.20;;;;;;;17.62;42.53;103049.78;4971422;28;20560;-59
2022/05/08 09:31:41;;;;;;;11.98;3.00;;;;;;;17.30;42.21;103050.84;4976726;28;20128;-59
2022/05/08 09:34:07;;;;;;;14.20;3.30;;;;;;;17.52;43.45;103045.13;4981500;28;20042;-57
2022/05/08 09:36:33;;;;;;;9.27;2.92;;;;;;;17.53;41.17;103049.56;4969969;28;20034;-59
2022/05/08 09:39:03;;;;;;;12.27;3.03;;;;;;;17.07;41.57;103046.84;4968631;28;20138;-57
2022/05/08 09:41:30;;;;;;;10.48;2.88;;;;;;;17.00;43.31;103044.09;4963460;28;20541;-57
2022/05/08 09:44:14;;;;;;;9.60;3.10;;;;;;;16.93;42.34;103050.09;4977456;28;20535;-57
2022/05/08 09:46:44;;;;;;;12.98;3.03;;;;;;;17.23;42.30;103041.94;4974619;28;20041;-56
2022/05/08 09:49:18;;;;;;;13.23;3.00;;;;;;;17.22;42.36;103047.16;4964434;28;20129;-57
2022/05/08 09:51:49;;;;;;;10.32;3.10;;;;;;;16.96;41.89;103043.97;4993249;28;20056;-57
2022/05/08 09:54:17;;;;;;;8.45;2.72;;;;;;;16.81;41.85;103046.28;4982244;28;20523;-57
2022/05/08 09:56:44;;;;;;;11.02;2.90;;;;;;;16.92;41.92;103042.13;4977594;28;20042;-57
2022/05/08 09:59:10;;;;;;;9.52;3.00;;;;;;;16.67;42.43;103043.34;4960011;28;20042;-58
2022/05/08 10:01:37;;;;;;;9.55;2.63;;;;;;;17.09;44.22;103053.03;4974745;28;20076;-57
2022/05/08 10:04:03;;;;;;;11.77;3.00;;;;;;;17.12;40.88;103048.72;4973816;28;20122;-58
2022/05/08 10:06:32;;;;;;;10.90;2.90;;;;;;;16.96;41.85;103050.13;4977344;28;20041;-57
2022/05/08 10:14:30;;;;;;;9.85;2.92;;;;;;;17.00;41.37;103045.84;4978252;28;20061;-59
2022/05/08 10:17:04;;;;;;;11.35;2.80;;;;;;;17.23;40.99;103038.41;4974255;28;20046;-55
2022/05/08 10:19:32;;;;;;;10.02;2.97;;;;;;;17.00;41.20;103043.19;4981696;28;20182;-57
2022/05/08 10:22:02;;;;;;;7.72;2.58;;;;;;;16.58;41.44;103037.84;4968664;28;20064;-59
2022/05/08 10:24:35;;;;;;;9.45;2.90;;;;;;;16.49;43.05;103038.50;4975611;28;20038;-58
2022/05/08 10:27:15;;;;;;;10.93;2.80;;;;;;;17.19;42.35;103047.13;4964302;28;20133;-60
2022/05/08 10:29:42;;;;;;;11.15;2.83;;;;;;;17.50;41.57;103036.31;4975833;28;20410;-59
2022/05/08 10:32:10;;;;;;;10.40;2.80;;;;;;;17.45;41.26;103035.31;4955212;28;20457;-59
2022/05/08 10:34:38;;;;;;;9.50;2.72;;;;;;;16.82;41.85;103034.91;4977455;28;20053;-56
2022/05/08 10:37:10;;;;;;;8.90;2.83;;;;;;;16.92;42.03;103036.88;4967685;28;20800;-59
2022/05/08 10:39:46;;;;;;;12.45;3.10;;;;;;;16.96;40.96;103034.31;4972534;28;20128;-59
2022/05/08 10:42:27;;;;;;;11.07;2.90;;;;;;;17.36;42.29;103024.59;4974289;28;20088;-59
2022/05/08 10:44:53;;;;;;;7.90;2.70;;;;;;;17.63;41.92;103035.69;4979516;28;20049;-59
2022/05/08 10:47:33;;;;;;;6.85;2.67;;;;;;;17.42;39.96;103030.91;4988099;28;20045;-57
2022/05/08 10:50:12;;;;;;;8.85;2.80;;;;;;;17.20;40.57;103038.34;4974836;28;20117;-58
2022/05/08 10:52:42;;;;;;;10.40;2.85;;;;;;;17.02;41.80;103034.44;4966129;28;20464;-59
2022/05/08 10:55:14;;;;;;;9.20;3.00;;;;;;;17.08;42.13;103025.78;4965379;28;20439;-58
2022/05/08 10:57:41;;;;;;;9.48;3.03;;;;;;;17.35;41.31;103025.47;4965633;28;20046;-58
2022/05/08 11:00:12;;;;;;;8.30;2.75;;;;;;;17.68;39.97;103023.50;4974633;28;20046;-57
2022/05/08 11:02:51;;;;;;;8.80;2.45;;;;;;;17.82;39.50;103035.19;4975353;28;20113;-57
2022/05/08 11:05:22;;;;;;;7.45;2.55;;;;;;;18.10;38.87;103033.03;4964893;28;20942;-58
2022/05/08 11:07:49;;;;;;;9.45;2.83;;;;;;;17.60;36.61;103032.09;4965042;28;20640;-57
2022/05/08 11:10:24;;;;;;;8.02;2.80;;;;;;;17.43;38.25;103035.31;4992266;28;20884;-57
2022/05/08 11:13:02;;;;;;;8.80;2.70;;;;;;;17.72;39.38;103029.72;4973517;28;20109;-58
2022/05/08 11:15:33;;;;;;;8.32;2.50;;;;;;;17.65;37.50;103031.34;4976754;28;20069;-57
2022/05/08 11:18:12;;;;;;;7.85;2.50;;;;;;;17.62;38.55;103025.16;4974108;28;20065;-61
2022/05/08 11:20:45;;;;;;;10.43;2.60;;;;;;;17.37;38.07;103027.28;4976594;28;20562;-59
2022/05/08 11:23:12;;;;;;;8.07;2.50;;;;;;;17.65;39.04;103028.72;4967449;28;20038;-58
2022/05/08 11:25:38;;;;;;;9.30;2.60;;;;;;;17.96;38.10;103024.88;4981444;28;20045;-59
2022/05/08 11:28:04;;;;;;;8.07;2.70;;;;;;;17.97;37.17;103025.75;4977210;28;20418;-57
2022/05/08 11:30:37;;;;;;;8.73;2.75;;;;;;;17.91;39.14;103020.38;4970867;28;20043;-59
2022/05/08 11:36:08;;;;;;;8.18;2.95;;;;;;;17.56;38.33;103023.25;4974144;28;20619;-60
2022/05/08 11:38:44;;;;;;;9.57;3.08;;;;;;;17.09;39.51;103030.19;4974838;28;20042;-58
2022/05/08 11:41:21;;;;;;;8.30;3.30;;;;;;;16.47;40.67;103013.88;4972489;28;20153;-57
2022/05/08 11:43:58;;;;;;;11.00;2.80;;;;;;;16.92;40.99;103015.78;4974902;28;20485;-59
2022/05/08 11:46:37;;;;;;;8.63;2.90;;;;;;;16.94;40.59;103011.44;4972811;28;20056;-59
2022/05/08 11:49:26;;;;;;;6.53;2.60;;;;;;;17.42;40.30;103006.28;4965230;28;20046;-59